createdAt,value
2018-01-12T00:02:06.166Z,22.53
2018-01-12T00:04:33.722Z,22.40
2018-01-12T00:07:01.735Z,28.60
2018-01-12T00:09:30.994Z,22.10
2018-01-12T00:11:58.532Z,25.70
2018-01-12T00:14:26.097Z,31.37
2018-01-12T00:16:53.685Z,28.47
2018-01-12T00:19:21.828Z,30.27
2018-01-12T00:21:49.405Z,22.40
2018-01-12T00:24:16.980Z,30.07
2018-01-12T00:26:44.545Z,27.40
2018-01-12T00:29:12.106Z,24.63
2018-01-12T00:31:39.704Z,27.63
2018-01-12T00:34:07.263Z,18.40
2018-01-12T00:36:35.085Z,23.30
2018-01-12T00:39:02.690Z,27.80
2018-01-12T00:41:30.309Z,20.17
2018-01-12T00:43:58.007Z,26.20
2018-01-12T00:46:25.627Z,22.80
2018-01-12T00:48:53.295Z,21.97
2018-01-12T00:51:20.849Z,25.27
2018-01-12T00:53:48.435Z,24.17
2018-01-12T00:56:16.837Z,22.07
2018-01-12T00:58:45.138Z,22.90
2018-01-12T01:01:12.717Z,24.57
2018-01-12T01:03:40.254Z,22.77
2018-01-12T01:06:07.807Z,20.80
2018-01-12T01:08:35.714Z,22.63
2018-01-12T01:11:03.504Z,20.73
2018-01-12T01:13:31.039Z,25.60
2018-01-12T01:15:58.657Z,24.37
2018-01-12T01:18:26.222Z,22.77
2018-01-12T01:20:54.522Z,21.90
2018-01-12T01:23:22.102Z,21.50
2018-01-12T01:25:50.481Z,24.07
2018-01-12T01:28:18.063Z,22.03
2018-01-12T01:30:46.309Z,26.47
2018-01-12T01:33:13.954Z,23.00
2018-01-12T01:35:41.523Z,23.87
2018-01-12T01:38:09.118Z,21.77
2018-01-12T01:40:42.270Z,29.27
2018-01-12T01:43:09.817Z,21.90
2018-01-12T01:45:38.169Z,25.23
2018-01-12T01:48:05.712Z,24.63
2018-01-12T01:50:33.286Z,29.33
2018-01-12T01:53:00.873Z,25.93
2018-01-12T01:55:28.465Z,30.97
2018-01-12T01:57:57.172Z,27.97
2018-01-12T02:00:24.764Z,21.80
2018-01-12T02:02:52.680Z,22.17
2018-01-12T02:05:20.236Z,25.80
2018-01-12T02:07:47.820Z,31.07
2018-01-12T02:10:15.394Z,29.27
2018-01-12T02:12:43.210Z,22.13
2018-01-12T02:15:10.780Z,22.27
2018-01-12T02:17:38.318Z,21.17
2018-01-12T02:20:05.883Z,21.27
2018-01-12T02:22:34.506Z,27.83
2018-01-12T02:25:02.070Z,24.40
2018-01-12T02:27:29.615Z,27.97
2018-01-12T02:29:57.203Z,29.37
2018-01-12T02:32:24.754Z,25.63
2018-01-12T02:34:52.395Z,25.43
2018-01-12T02:37:20.310Z,37.53
2018-01-12T02:39:49.344Z,32.70
2018-01-12T02:42:16.900Z,25.87
2018-01-12T02:44:44.506Z,24.97
2018-01-12T02:47:12.164Z,30.70
2018-01-12T02:49:39.773Z,27.27
2018-01-12T02:52:08.120Z,23.07
2018-01-12T02:54:37.172Z,26.00
2018-01-12T02:57:05.557Z,20.53
2018-01-12T02:59:33.453Z,28.97
2018-01-12T03:02:01.892Z,26.10
2018-01-12T03:04:30.041Z,26.63
2018-01-12T03:06:57.662Z,24.73
2018-01-12T03:09:25.230Z,26.07
2018-01-12T03:11:53.875Z,27.30
2018-01-12T03:14:21.672Z,26.00
2018-01-12T03:16:49.546Z,28.70
2018-01-12T03:19:17.125Z,26.57
2018-01-12T03:21:44.716Z,23.77
2018-01-12T03:24:12.801Z,30.43
2018-01-12T03:26:40.503Z,27.13
2018-01-12T03:29:08.132Z,26.70
2018-01-12T03:31:35.717Z,25.87
2018-01-12T03:34:03.369Z,31.33
2018-01-12T03:36:32.264Z,23.77
2018-01-12T03:39:00.028Z,27.07
2018-01-12T03:41:27.602Z,26.47
2018-01-12T03:43:55.173Z,27.50
2018-01-12T03:46:22.806Z,28.70
2018-01-12T03:48:50.343Z,25.20
2018-01-12T03:51:18.609Z,31.73
2018-01-12T03:53:46.930Z,31.33
2018-01-12T03:56:14.483Z,23.67
2018-01-12T03:58:42.057Z,25.57
2018-01-12T04:01:10.084Z,29.90
2018-01-12T04:03:37.625Z,28.67
2018-01-12T04:06:05.195Z,26.10
2018-01-12T04:08:33.501Z,30.10
2018-01-12T04:11:01.060Z,24.60
2018-01-12T04:13:28.651Z,30.10
2018-01-12T04:15:56.385Z,22.03
2018-01-12T04:18:23.923Z,23.00
2018-01-12T04:20:52.269Z,26.87
2018-01-12T04:23:19.822Z,28.77
2018-01-12T04:25:47.442Z,26.10
2018-01-12T04:28:15.968Z,29.03
2018-01-12T04:30:44.063Z,31.53
2018-01-12T04:33:11.605Z,26.67
2018-01-12T04:35:39.213Z,31.40
2018-01-12T04:38:06.744Z,30.30
2018-01-12T04:40:34.290Z,26.80
2018-01-12T04:43:01.856Z,38.90
2018-01-12T04:45:29.388Z,38.03
2018-01-12T04:47:56.932Z,34.60
2018-01-12T04:50:25.297Z,36.17
2018-01-12T04:52:52.873Z,29.40
2018-01-12T04:55:21.130Z,38.87
2018-01-12T04:57:48.708Z,25.23
2018-01-12T05:00:16.366Z,31.70
2018-01-12T05:02:44.292Z,34.37
2018-01-12T05:05:11.864Z,39.37
2018-01-12T05:07:40.199Z,32.23
2018-01-12T05:10:07.768Z,33.90
2018-01-12T05:12:35.589Z,29.87
2018-01-12T05:15:03.306Z,30.00
2018-01-12T05:17:30.895Z,30.27
2018-01-12T05:19:58.517Z,30.07
2018-01-12T05:22:26.049Z,34.57
2018-01-12T05:24:53.606Z,31.53
2018-01-12T05:27:21.187Z,34.23
2018-01-12T05:29:48.723Z,31.33
2018-01-12T05:32:16.293Z,31.93
2018-01-12T05:34:43.871Z,42.27
2018-01-12T05:37:11.432Z,35.90
2018-01-12T05:39:39.137Z,29.50
2018-01-12T05:42:07.584Z,39.90
2018-01-12T05:44:35.225Z,36.90
2018-01-12T05:47:02.772Z,30.80
2018-01-12T05:49:30.343Z,28.93
2018-01-12T05:51:57.894Z,38.03
2018-01-12T05:54:26.540Z,24.03
2018-01-12T05:56:55.200Z,28.97
2018-01-12T05:59:22.771Z,32.17
2018-01-12T06:02:02.299Z,30.30
2018-01-12T06:04:42.065Z,29.27
2018-01-12T06:07:09.656Z,25.70
2018-01-12T06:09:37.980Z,35.17
2018-01-12T06:12:05.577Z,37.23
2018-01-12T06:14:33.168Z,28.27
2018-01-12T06:17:00.760Z,34.57
2018-01-12T06:19:28.518Z,38.20
2018-01-12T07:43:53.584Z,23.83
2018-01-12T07:46:21.117Z,28.23
2018-01-12T07:48:50.270Z,20.37
2018-01-12T07:51:17.860Z,25.90
2018-01-12T07:53:47.031Z,21.70
2018-01-12T07:56:14.594Z,23.17
2018-01-12T07:58:42.206Z,21.40
2018-01-12T08:01:15.394Z,27.50
2018-01-12T08:03:43.746Z,27.03
2018-01-12T08:06:11.334Z,22.17
2018-01-12T08:08:39.199Z,25.87
2018-01-12T08:11:07.679Z,24.70
2018-01-12T08:13:35.997Z,23.37
2018-01-12T08:16:03.583Z,23.17
2018-01-12T08:18:31.154Z,33.83
2018-01-12T08:21:00.296Z,22.33
2018-01-12T08:23:27.871Z,23.80
2018-01-12T08:25:56.111Z,25.13
2018-01-12T08:28:24.434Z,25.33
2018-01-12T08:30:52.192Z,29.47
2018-01-12T08:33:20.089Z,29.23
2018-01-12T08:35:48.564Z,30.27
2018-01-12T08:38:16.119Z,28.97
2018-01-12T08:40:43.705Z,30.80
2018-01-12T08:43:11.242Z,33.53
2018-01-12T08:45:39.074Z,29.67
2018-01-12T08:48:06.679Z,24.23
2018-01-12T08:50:34.295Z,34.20
2018-01-12T08:53:01.975Z,24.73
2018-01-12T08:55:29.659Z,25.23
2018-01-12T08:57:57.483Z,26.33
2018-01-12T09:00:25.779Z,25.67
2018-01-12T09:02:53.339Z,33.87
2018-01-12T09:05:21.609Z,27.77
2018-01-12T09:07:49.201Z,28.90
2018-01-12T09:10:16.790Z,22.30
2018-01-12T09:12:44.324Z,29.40
2018-01-12T09:15:22.775Z,29.87
2018-01-12T09:17:51.094Z,24.50
2018-01-12T09:20:20.182Z,25.53
2018-01-12T09:22:48.661Z,31.93
2018-01-12T09:25:26.594Z,28.13
2018-01-12T09:27:54.199Z,27.20
2018-01-12T09:30:22.534Z,27.03
2018-01-12T09:32:50.070Z,28.93
2018-01-12T09:35:17.642Z,30.00
2018-01-12T09:37:46.263Z,29.03
2018-01-12T09:40:28.218Z,27.60
2018-01-12T09:42:55.763Z,24.33
2018-01-12T09:45:23.292Z,28.83
2018-01-12T09:48:03.314Z,30.80
2018-01-12T09:50:30.934Z,29.20
2018-01-12T09:52:58.485Z,26.87
2018-01-12T09:55:27.125Z,26.60
2018-01-12T09:57:54.668Z,34.93
2018-01-12T10:00:40.003Z,26.47
2018-01-12T10:03:08.325Z,29.97
2018-01-12T10:05:35.872Z,34.73
2018-01-12T10:08:06.941Z,27.50
2018-01-12T10:10:34.502Z,22.07
2018-01-12T10:13:02.061Z,22.30
2018-01-12T10:15:29.649Z,22.33
2018-01-12T10:17:57.204Z,26.30
2018-01-12T10:20:39.962Z,23.07
2018-01-12T10:23:07.504Z,22.57
2018-01-12T10:25:35.831Z,20.20
2018-01-12T10:28:03.455Z,19.10
2018-01-12T10:44:09.735Z,20.23
2018-01-12T10:46:45.937Z,20.63
2018-01-12T10:49:27.271Z,21.70
2018-01-12T10:52:07.642Z,20.80
2018-01-12T10:54:35.226Z,20.30
2018-01-12T10:57:02.756Z,17.93
2018-01-12T10:59:30.364Z,20.77
2018-01-12T11:01:58.196Z,20.23
2018-01-12T11:04:25.743Z,23.57
2018-01-12T11:06:53.314Z,25.50
2018-01-12T11:09:20.906Z,23.20
2018-01-12T11:11:49.252Z,25.80
2018-01-12T11:14:17.621Z,25.83
2018-01-12T11:16:45.189Z,30.80
2018-01-12T11:19:12.750Z,31.03
2018-01-12T11:21:40.279Z,24.90
2018-01-12T11:24:07.844Z,25.80
2018-01-12T11:26:36.420Z,22.70
2018-01-12T11:29:03.955Z,24.47
2018-01-12T11:31:31.532Z,25.30
2018-01-12T11:33:59.103Z,30.63
2018-01-12T11:36:27.422Z,25.43
2018-01-12T11:38:55.182Z,22.80
2018-01-12T11:41:22.742Z,28.40
2018-01-12T11:43:50.287Z,24.70
2018-01-12T11:46:18.186Z,28.80
2018-01-12T11:48:45.756Z,25.50
2018-01-12T11:51:13.312Z,30.17
2018-01-12T11:53:41.183Z,23.33
2018-01-12T11:56:08.821Z,26.67
2018-01-12T11:58:36.377Z,28.40
2018-01-12T12:01:03.958Z,29.53
2018-01-12T12:03:32.391Z,23.17
2018-01-12T12:05:59.937Z,31.00
2018-01-12T12:08:28.382Z,21.23
2018-01-12T12:10:55.927Z,26.67
2018-01-12T12:13:23.490Z,30.53
2018-01-12T12:15:51.135Z,21.40
2018-01-12T12:18:18.745Z,24.33
2018-01-12T12:20:46.345Z,25.80
2018-01-12T12:23:13.908Z,26.07
2018-01-12T12:25:41.444Z,34.73
2018-01-12T12:28:09.330Z,26.80
2018-01-12T12:30:37.125Z,26.73
2018-01-12T12:33:04.662Z,26.40
2018-01-12T12:35:33.036Z,28.27
2018-01-12T12:38:01.545Z,23.97
2018-01-12T12:40:29.162Z,25.87
2018-01-12T12:42:56.716Z,24.67
2018-01-12T12:45:24.296Z,33.30
2018-01-12T12:47:53.731Z,28.90
2018-01-12T12:50:21.312Z,28.70
2018-01-12T12:52:48.999Z,18.33
2018-01-12T12:55:16.563Z,26.77
2018-01-12T12:57:45.609Z,28.57
2018-01-12T13:00:13.194Z,29.73
2018-01-12T13:02:40.737Z,21.80
2018-01-12T13:05:08.467Z,28.00
2018-01-12T13:07:37.635Z,23.70
2018-01-12T13:10:05.176Z,26.50
2018-01-12T13:12:32.754Z,26.10
2018-01-12T13:15:00.327Z,24.43
2018-01-12T13:17:27.871Z,24.60
2018-01-12T13:19:55.426Z,25.77
2018-01-12T13:22:23.001Z,27.20
2018-01-12T13:24:50.551Z,27.33
2018-01-12T13:27:18.100Z,22.00
2018-01-12T13:29:46.566Z,23.20
2018-01-12T13:32:14.280Z,27.53
2018-01-12T13:34:42.611Z,21.40
2018-01-12T13:37:10.206Z,25.87
2018-01-12T13:39:37.918Z,19.30
2018-01-12T13:42:05.763Z,19.17
2018-01-12T13:44:33.334Z,22.53
2018-01-12T13:47:00.868Z,19.97
2018-01-12T13:49:28.481Z,29.70
2018-01-12T13:51:56.073Z,20.60
2018-01-12T13:54:23.608Z,20.67
2018-01-12T13:56:51.143Z,21.30
2018-01-12T13:59:18.715Z,24.63
2018-01-12T14:01:46.242Z,22.43
2018-01-12T14:04:14.535Z,21.30
2018-01-12T14:06:42.134Z,28.60
2018-01-12T14:09:09.947Z,26.40
2018-01-12T14:11:38.345Z,18.90
2018-01-12T14:14:05.961Z,23.90
2018-01-12T14:16:33.567Z,21.80
2018-01-12T14:19:02.149Z,19.00
2018-01-12T14:21:29.733Z,21.30
2018-01-12T14:23:57.520Z,24.73
2018-01-12T14:26:25.138Z,25.80
2018-01-12T14:28:52.712Z,28.50
2018-01-12T14:31:21.064Z,25.90
2018-01-12T14:33:48.679Z,24.70
2018-01-12T14:36:16.442Z,19.53
2018-01-12T14:38:44.002Z,17.80
2018-01-12T14:41:11.597Z,26.80
2018-01-12T14:43:39.184Z,27.90
2018-01-12T14:46:06.763Z,20.57
2018-01-12T14:48:34.375Z,24.47
2018-01-12T14:51:01.942Z,27.23
2018-01-12T14:53:30.318Z,26.73
2018-01-12T14:55:58.645Z,20.77
2018-01-12T14:58:26.972Z,27.73
2018-01-12T15:00:55.214Z,22.80
2018-01-12T15:03:24.415Z,23.03
2018-01-12T15:05:52.771Z,30.30
2018-01-12T15:08:21.347Z,23.47
2018-01-12T15:10:49.762Z,23.80
2018-01-12T15:13:17.666Z,20.23
2018-01-12T15:15:50.618Z,23.83
2018-01-12T15:18:22.270Z,26.67
2018-01-12T15:20:50.794Z,23.63
2018-01-12T15:23:19.263Z,29.90
2018-01-12T15:25:49.194Z,27.80
2018-01-12T15:28:18.642Z,17.27
2018-01-12T15:30:46.547Z,20.77
2018-01-12T15:33:15.870Z,24.27
2018-01-12T15:35:45.923Z,22.50
2018-01-12T15:38:13.941Z,20.40
2018-01-12T15:40:44.919Z,21.57
2018-01-12T15:43:14.344Z,21.43
2018-01-12T15:45:42.718Z,22.07
2018-01-12T15:52:47.131Z,22.10
2018-01-12T15:55:15.044Z,18.00
2018-01-12T15:57:43.299Z,25.77
2018-01-12T16:00:11.897Z,25.97
2018-01-12T16:02:41.858Z,24.00
2018-01-12T16:05:10.913Z,23.93
2018-01-12T16:07:39.300Z,20.33
2018-01-12T16:10:07.858Z,24.10
2018-01-12T16:12:36.501Z,22.07
2018-01-12T16:15:05.450Z,22.77
2018-01-12T16:17:33.156Z,23.30
2018-01-12T16:20:01.594Z,23.37
2018-01-12T16:22:30.207Z,19.30
2018-01-12T16:24:58.400Z,24.57
2018-01-12T16:27:27.150Z,23.33
2018-01-12T16:29:54.884Z,21.50
2018-01-12T16:32:23.754Z,22.77
2018-01-12T16:34:52.035Z,21.60
2018-01-12T16:37:20.294Z,20.27
2018-01-12T16:39:48.844Z,20.10
2018-01-12T16:42:17.263Z,17.40
2018-01-12T16:44:45.457Z,19.33
2018-01-12T16:47:13.375Z,23.43
2018-01-12T16:49:41.945Z,17.23
2018-01-12T16:52:10.290Z,20.37
2018-01-12T16:54:39.017Z,22.97
2018-01-12T16:57:06.918Z,21.70
2018-01-12T16:59:35.100Z,21.00
2018-01-12T17:02:03.785Z,25.13
2018-01-12T17:04:32.407Z,20.57
2018-01-12T17:07:00.433Z,32.83
2018-01-12T17:09:28.521Z,25.10
2018-01-12T17:11:56.613Z,26.80
2018-01-12T17:14:24.476Z,25.67
2018-01-12T17:16:52.744Z,26.20
2018-01-12T17:19:21.886Z,24.60
2018-01-12T17:21:50.003Z,20.87
2018-01-12T17:24:18.566Z,24.20
2018-01-12T17:26:47.425Z,27.70
2018-01-12T17:29:15.566Z,31.20
2018-01-12T17:31:44.730Z,25.50
2018-01-12T17:34:13.149Z,19.47
2018-01-12T17:36:41.328Z,17.47
2018-01-12T17:39:10.338Z,21.57
2018-01-12T17:41:38.430Z,24.30
2018-01-12T17:44:06.513Z,20.53
2018-01-12T17:46:34.199Z,26.20
2018-01-12T17:49:02.873Z,25.60
2018-01-12T17:51:31.105Z,18.60
2018-01-12T17:54:00.729Z,21.00
2018-01-12T17:56:28.882Z,18.73
2018-01-12T17:58:56.933Z,24.20
2018-01-12T18:01:25.455Z,18.60
2018-01-12T18:03:54.358Z,23.10
2018-01-12T18:06:22.655Z,23.43
2018-01-12T18:08:51.296Z,21.13
2018-01-12T18:11:24.487Z,15.53
2018-01-12T18:13:52.817Z,16.00
2018-01-12T18:16:20.957Z,18.10
2018-01-12T18:18:49.076Z,20.60
2018-01-12T18:21:17.933Z,20.13
2018-01-12T18:23:46.065Z,21.40
2018-01-12T18:26:14.788Z,20.37
2018-01-12T18:28:43.211Z,19.37
2018-01-12T18:31:11.138Z,22.50
2018-01-12T18:33:38.910Z,21.40
2018-01-12T18:36:06.815Z,20.77
2018-01-12T18:38:34.722Z,17.87
2018-01-12T18:41:02.465Z,18.17
2018-01-12T18:43:30.187Z,18.07
2018-01-12T18:45:58.112Z,19.30
2018-01-12T18:48:26.695Z,19.47
2018-01-12T18:50:54.626Z,21.70
2018-01-12T18:53:22.625Z,17.57
2018-01-12T18:55:50.632Z,19.27
2018-01-12T18:58:19.968Z,21.03
2018-01-12T19:00:48.896Z,16.90
2018-01-12T19:03:16.957Z,17.20
2018-01-12T19:05:46.175Z,16.53
2018-01-12T19:08:16.400Z,25.27
2018-01-12T19:10:44.736Z,16.07
2018-01-12T19:13:16.107Z,15.10
2018-01-12T19:15:44.166Z,24.20
2018-01-12T19:18:13.665Z,22.03
2018-01-12T19:20:42.674Z,15.77
2018-01-12T19:23:12.231Z,23.57
2018-01-12T19:25:39.998Z,18.90
2018-01-12T19:28:08.952Z,18.40
2018-01-12T19:30:37.589Z,20.90
2018-01-12T19:33:05.541Z,18.23
2018-01-12T19:35:33.657Z,20.93
2018-01-12T19:38:01.797Z,18.87
2018-01-12T19:40:30.451Z,21.50
2018-01-12T19:42:58.307Z,20.17
2018-01-12T19:45:26.967Z,18.63
2018-01-12T19:47:54.560Z,17.87
2018-01-12T19:50:23.098Z,16.17
2018-01-12T19:52:50.889Z,15.03
2018-01-12T19:55:20.492Z,17.67
2018-01-12T19:57:49.564Z,25.20
2018-01-12T20:00:18.783Z,17.37
2018-01-12T20:02:47.652Z,16.20
2018-01-12T20:05:17.667Z,18.30
2018-01-12T20:07:45.687Z,11.20
2018-01-12T20:10:15.242Z,16.43
2018-01-12T20:12:43.039Z,22.37
2018-01-12T20:15:10.955Z,13.10
2018-01-12T20:17:39.674Z,15.33
2018-01-12T20:20:08.532Z,16.50
2018-01-12T20:22:36.199Z,13.77
2018-01-12T20:25:05.679Z,12.27
2018-01-12T20:27:33.566Z,19.13
2018-01-12T20:30:01.590Z,14.80
2018-01-12T20:32:29.625Z,11.90
2018-01-12T20:34:57.335Z,12.07
2018-01-12T20:37:26.604Z,14.17
2018-01-12T20:39:55.265Z,15.23
2018-01-12T20:42:23.925Z,12.07
2018-01-12T20:44:51.658Z,16.30
2018-01-12T20:47:19.515Z,18.00
2018-01-12T20:49:47.259Z,14.57
2018-01-12T20:52:15.147Z,14.43
2018-01-12T20:54:42.819Z,14.30
2018-01-12T20:57:10.620Z,16.37
2018-01-12T20:59:39.897Z,12.53
2018-01-12T21:02:07.701Z,13.50
2018-01-12T21:04:35.685Z,21.50
2018-01-12T21:07:03.573Z,18.97
2018-01-12T21:09:33.336Z,18.90
2018-01-12T21:12:01.097Z,18.53
2018-01-12T21:14:29.448Z,18.60
2018-01-12T21:16:57.188Z,17.40
2018-01-12T21:19:25.125Z,17.37
2018-01-12T21:21:53.690Z,18.73
2018-01-12T21:24:22.035Z,19.60
2018-01-12T21:26:49.842Z,20.40
2018-01-12T21:29:18.222Z,23.83
2018-01-12T21:31:46.959Z,22.17
2018-01-12T21:34:15.075Z,25.23
2018-01-12T21:36:42.809Z,24.23
2018-01-12T21:39:10.484Z,20.50
2018-01-12T21:41:39.645Z,27.63
2018-01-12T21:44:07.701Z,27.10
2018-01-12T21:46:36.152Z,20.27
2018-01-12T21:49:03.807Z,18.33
2018-01-12T21:51:32.222Z,15.37
2018-01-12T21:54:00.225Z,32.07
2018-01-12T21:56:28.251Z,27.13
2018-01-12T21:58:56.935Z,19.90
2018-01-12T22:01:24.813Z,18.30
2018-01-12T22:03:52.640Z,19.20
2018-01-12T22:06:20.322Z,19.97
2018-01-12T22:08:48.135Z,18.63
2018-01-12T22:11:16.896Z,22.53
2018-01-12T22:13:45.221Z,31.07
2018-01-12T22:16:12.994Z,25.47
2018-01-12T22:18:41.392Z,28.67
2018-01-12T22:21:09.102Z,23.17
2018-01-12T22:23:36.871Z,21.57
2018-01-12T22:26:04.710Z,19.07
2018-01-12T22:28:32.319Z,17.20
2018-01-12T22:30:59.989Z,16.30
2018-01-12T22:33:28.489Z,18.70
2018-01-12T22:35:56.159Z,17.87
2018-01-12T22:38:24.007Z,18.97
2018-01-12T22:40:52.579Z,14.23
2018-01-12T22:43:20.897Z,19.37
2018-01-12T22:45:49.454Z,19.93
2018-01-12T22:48:17.060Z,15.47
2018-01-12T22:50:46.319Z,16.03
2018-01-12T22:53:13.924Z,12.90
2018-01-12T22:55:42.302Z,20.70
2018-01-12T22:58:10.753Z,21.23
2018-01-12T23:00:38.394Z,14.50
2018-01-12T23:03:06.162Z,17.53
2018-01-12T23:05:33.813Z,13.17
2018-01-12T23:08:02.340Z,16.23
2018-01-12T23:10:31.103Z,18.13
2018-01-12T23:12:59.112Z,14.40
2018-01-12T23:15:28.244Z,13.17
2018-01-12T23:17:56.569Z,18.07
2018-01-12T23:20:24.141Z,16.17
2018-01-12T23:22:52.568Z,17.93
2018-01-12T23:25:21.225Z,16.70
2018-01-12T23:27:49.573Z,13.53
2018-01-12T23:30:17.321Z,15.40
2018-01-12T23:32:45.225Z,15.70
2018-01-12T23:35:13.273Z,13.80
2018-01-12T23:37:40.946Z,21.43
2018-01-12T23:40:08.604Z,14.67
2018-01-12T23:42:36.211Z,16.20
2018-01-12T23:45:03.897Z,11.20
2018-01-12T23:47:31.531Z,10.60
2018-01-12T23:49:59.198Z,14.80
2018-01-12T23:52:26.827Z,10.63
2018-01-12T23:54:55.133Z,17.97
2018-01-12T23:57:22.723Z,13.03
2018-01-12T23:59:50.339Z,14.70
